Time;durP1;ratioP1;P1;durP2;ratioP2;P2;SDS_P1;SDS_P2;PMS_P1;PMS_P2;Temp;Humidity;BMP_temperature;BMP_pressure;BME280_temperature;BME280_humidity;BME280_pressure;Samples;Min_cycle;Max_cycle;Signal;HPM_P1;HPM_P2
2022/03/14 00:02:19;;;;;;;2.13;1.15;;;;;;;10.09;75.64;101470.78;5243178;28;20040;-67
2022/03/14 00:04:51;;;;;;;2.40;1.23;;;;;;;10.08;76.25;101477.91;5248300;28;20029;-67
2022/03/14 00:07:22;;;;;;;2.97;1.42;;;;;;;10.10;76.35;101477.81;5246231;28;20041;-67
2022/03/14 00:09:54;;;;;;;2.92;1.50;;;;;;;10.07;76.29;101478.88;5241673;28;20048;-67
2022/03/14 00:12:25;;;;;;;3.08;1.50;;;;;;;10.02;76.50;101476.50;5243174;28;20025;-67
2022/03/14 00:15:03;;;;;;;2.97;1.42;;;;;;;10.04;76.45;101495.06;5246819;28;20400;-67
2022/03/14 00:17:34;;;;;;;2.70;1.42;;;;;;;10.01;76.44;101485.47;5248659;28;20123;-67
2022/03/14 00:20:11;;;;;;;4.10;1.70;;;;;;;10.01;76.56;101495.28;5246622;28;20037;-67
2022/03/14 00:22:44;;;;;;;2.70;1.63;;;;;;;9.98;77.22;101495.47;5247171;28;20037;-67
2022/03/14 00:25:15;;;;;;;3.28;1.60;;;;;;;9.97;76.71;101497.28;5246861;28;20439;-67
2022/03/14 00:27:47;;;;;;;2.83;1.55;;;;;;;9.96;77.11;101498.22;5249610;28;20108;-67
2022/03/14 00:30:18;;;;;;;3.38;1.50;;;;;;;9.92;77.75;101495.88;5240532;28;20079;-67
2022/03/14 00:32:49;;;;;;;4.53;2.00;;;;;;;9.98;77.24;101514.97;5247602;28;20126;-67
2022/03/14 00:35:21;;;;;;;4.40;2.08;;;;;;;9.89;77.73;101504.03;5238387;28;20061;-67
2022/03/14 00:37:52;;;;;;;3.78;1.90;;;;;;;9.95;76.77;101506.31;5242095;28;20041;-67
2022/03/14 00:40:23;;;;;;;3.20;1.80;;;;;;;9.87;78.41;101512.13;5242168;28;20029;-67
2022/03/14 00:42:55;;;;;;;3.03;1.65;;;;;;;9.87;78.25;101514.78;5252070;28;20033;-68
2022/03/14 00:45:26;;;;;;;2.80;1.60;;;;;;;9.88;77.76;101521.84;5244998;28;20033;-67
2022/03/14 00:47:58;;;;;;;3.88;2.10;;;;;;;9.88;77.62;101523.66;5242613;28;20025;-67
2022/03/14 00:50:29;;;;;;;3.00;1.70;;;;;;;9.87;78.07;101520.13;5243091;28;20035;-67
2022/03/14 00:53:00;;;;;;;3.50;1.70;;;;;;;9.91;78.47;101531.44;5245631;28;20044;-67
2022/03/14 00:55:31;;;;;;;2.67;1.63;;;;;;;9.87;79.54;101540.59;5238663;28;20545;-67
2022/03/14 00:58:03;;;;;;;3.35;1.85;;;;;;;9.78;81.16;101539.38;5251918;28;20061;-67
2022/03/14 01:00:34;;;;;;;3.28;1.92;;;;;;;9.78;81.47;101540.22;5240341;28;20052;-67
2022/03/14 01:03:06;;;;;;;3.25;1.90;;;;;;;9.76;81.34;101538.59;5244736;28;20443;-67
2022/03/14 01:05:37;;;;;;;3.30;1.98;;;;;;;9.69;81.99;101542.59;5241448;28;20384;-67
2022/03/14 01:08:08;;;;;;;3.35;2.20;;;;;;;9.73;81.32;101542.31;5249353;28;20064;-67
2022/03/14 01:10:40;;;;;;;3.65;2.33;;;;;;;9.72;81.43;101553.06;5244654;28;20036;-67
2022/03/14 01:13:11;;;;;;;3.92;2.28;;;;;;;9.69;81.14;101556.78;5247630;28;20041;-67
2022/03/14 01:15:42;;;;;;;3.55;2.15;;;;;;;9.67;80.81;101553.34;5247203;28;20316;-67
2022/03/14 01:18:14;;;;;;;3.88;2.10;;;;;;;9.70;80.79;101557.63;5250537;28;20032;-67
2022/03/14 01:20:45;;;;;;;3.40;2.13;;;;;;;9.73;80.81;101557.44;5244819;28;20033;-67
2022/03/14 01:23:17;;;;;;;3.65;2.17;;;;;;;9.76;81.01;101554.56;5248503;28;20025;-67
2022/03/14 01:25:49;;;;;;;4.20;2.30;;;;;;;9.67;82.34;101565.81;5243186;28;20528;-67
2022/03/14 01:28:20;;;;;;;3.60;2.20;;;;;;;9.60;82.46;101565.31;5248341;28;20029;-67
2022/03/14 01:30:51;;;;;;;3.80;2.40;;;;;;;9.64;82.22;101566.00;5246080;28;20440;-67
2022/03/14 01:33:23;;;;;;;4.47;2.40;;;;;;;9.62;82.48;101571.41;5242502;28;20669;-67
2022/03/14 01:35:54;;;;;;;4.57;2.45;;;;;;;9.53;82.54;101574.63;5239390;28;20044;-67
2022/03/14 01:38:25;;;;;;;4.88;2.30;;;;;;;9.61;82.15;101583.88;5243162;28;20036;-67
2022/03/14 01:40:57;;;;;;;3.75;2.45;;;;;;;9.56;82.42;101577.97;5248700;28;20045;-67
2022/03/14 01:43:28;;;;;;;5.13;2.60;;;;;;;9.59;82.87;101575.13;5245699;28;20033;-67
2022/03/14 01:46:00;;;;;;;4.35;2.28;;;;;;;9.55;82.88;101576.28;5246325;28;20132;-67
2022/03/14 01:48:31;;;;;;;4.55;2.40;;;;;;;9.55;82.32;101576.28;5250516;28;20473;-67
2022/03/14 01:51:02;;;;;;;4.38;2.35;;;;;;;9.54;82.67;101582.53;5239333;28;20103;-67
2022/03/14 01:53:35;;;;;;;4.68;2.40;;;;;;;9.60;82.25;101587.50;5237108;28;20047;-67
2022/03/14 01:56:07;;;;;;;4.35;2.65;;;;;;;9.60;82.70;101586.63;5249906;28;20082;-67
2022/03/14 01:58:39;;;;;;;4.38;2.53;;;;;;;9.59;82.27;101599.13;5243609;28;20052;-67
2022/03/14 02:01:10;;;;;;;3.97;2.40;;;;;;;9.53;82.88;101596.81;5242643;28;20033;-67
2022/03/14 02:03:42;;;;;;;4.97;3.00;;;;;;;9.53;82.91;101594.16;5237902;28;20501;-67
2022/03/14 02:06:13;;;;;;;4.13;2.72;;;;;;;9.58;82.94;101600.03;5237840;28;20073;-67
2022/03/14 02:08:45;;;;;;;4.53;2.60;;;;;;;9.58;82.80;101597.38;5234654;28;20533;-67
2022/03/14 02:11:17;;;;;;;4.05;2.65;;;;;;;9.54;83.27;101601.19;5239490;28;20113;-67
2022/03/14 02:13:48;;;;;;;4.53;2.70;;;;;;;9.56;83.36;101603.75;5241781;28;20491;-67
2022/03/14 02:16:19;;;;;;;4.63;2.72;;;;;;;9.60;82.82;101603.47;5243093;28;20037;-67
2022/03/14 02:18:51;;;;;;;4.00;2.90;;;;;;;9.55;83.35;101618.03;5243418;28;20368;-67
2022/03/14 02:21:22;;;;;;;4.50;2.60;;;;;;;9.58;83.68;101617.84;5246068;28;20029;-67
2022/03/14 02:23:53;;;;;;;4.15;2.90;;;;;;;9.66;83.10;101628.03;5246494;28;20069;-67
2022/03/14 02:26:25;;;;;;;5.53;3.40;;;;;;;9.53;83.73;101625.25;5244383;28;20115;-67
2022/03/14 02:28:56;;;;;;;4.35;3.00;;;;;;;9.58;83.38;101623.19;5251526;28;20045;-67
2022/03/14 02:31:27;;;;;;;5.75;2.97;;;;;;;9.58;83.52;101625.84;5253788;28;20033;-67
2022/03/14 02:33:59;;;;;;;4.95;2.80;;;;;;;9.60;83.80;101622.13;5245291;28;20032;-67
2022/03/14 02:36:31;;;;;;;4.65;3.05;;;;;;;9.50;84.31;101623.63;5245940;28;20449;-67
2022/03/14 02:39:02;;;;;;;4.68;3.00;;;;;;;9.48;84.30;101620.22;5248524;28;20129;-67
2022/03/14 02:41:33;;;;;;;4.55;3.10;;;;;;;9.52;84.39;101629.72;5251264;28;20044;-67
2022/03/14 02:44:07;;;;;;;5.57;3.50;;;;;;;9.48;84.72;101633.53;5254690;28;20051;-67
2022/03/14 02:46:39;;;;;;;4.72;3.22;;;;;;;9.47;84.41;101634.47;5241611;28;20044;-67
2022/03/14 02:49:11;;;;;;;5.00;3.15;;;;;;;9.44;84.87;101629.34;5251904;28;20024;-67
2022/03/14 02:51:43;;;;;;;4.80;2.83;;;;;;;9.48;84.54;101635.34;5249186;28;20110;-67
2022/03/14 02:54:15;;;;;;;4.60;3.00;;;;;;;9.37;85.01;101642.13;5249737;28;20686;-67
2022/03/14 02:56:46;;;;;;;4.25;2.88;;;;;;;9.42;84.78;101645.41;5259956;28;20028;-67
2022/03/14 02:59:17;;;;;;;4.90;2.95;;;;;;;9.37;85.49;101658.13;5252799;28;20061;-67
2022/03/14 03:01:48;;;;;;;4.47;2.95;;;;;;;9.36;85.01;101658.22;5251869;28;20390;-67
2022/03/14 03:04:20;;;;;;;4.65;3.20;;;;;;;9.33;85.24;101666.38;5249723;28;20068;-67
2022/03/14 03:06:53;;;;;;;4.55;3.00;;;;;;;9.34;85.29;101668.09;5243545;28;20032;-67
2022/03/14 03:09:30;;;;;;;4.90;3.20;;;;;;;9.31;84.89;101677.13;5249662;28;20055;-67
2022/03/14 03:12:02;;;;;;;4.35;3.03;;;;;;;9.36;85.29;101682.19;5253836;28;20081;-67
2022/03/14 03:14:35;;;;;;;5.05;3.15;;;;;;;9.32;85.21;101691.28;5259956;28;20049;-67
2022/03/14 03:17:06;;;;;;;4.18;2.92;;;;;;;9.27;85.32;101698.72;5247594;28;20113;-68
2022/03/14 03:19:38;;;;;;;4.00;2.75;;;;;;;9.23;85.71;101698.88;5250242;28;20127;-67
2022/03/14 03:22:09;;;;;;;5.78;3.38;;;;;;;9.26;86.69;101703.16;5265069;28;20020;-67
2022/03/14 03:24:40;;;;;;;5.07;3.55;;;;;;;9.16;88.99;101705.47;5254982;28;20056;-67
2022/03/14 03:27:11;;;;;;;5.32;3.30;;;;;;;9.09;90.17;101712.13;5243830;28;20024;-67
2022/03/14 03:29:43;;;;;;;4.65;3.22;;;;;;;8.96;89.58;101721.75;5247931;28;20103;-67
2022/03/14 03:32:14;;;;;;;5.35;3.42;;;;;;;8.88;91.25;101726.59;5246801;28;20017;-67
2022/03/14 03:34:45;;;;;;;5.75;3.55;;;;;;;8.85;91.54;101737.44;5243656;28;20032;-67
2022/03/14 03:37:16;;;;;;;4.43;3.25;;;;;;;8.88;91.40;101747.91;5237364;28;20099;-67
2022/03/14 03:39:48;;;;;;;4.65;3.50;;;;;;;8.83;92.00;101748.16;5236977;28;20024;-67
2022/03/14 03:42:19;;;;;;;4.57;3.67;;;;;;;8.83;91.28;101749.00;5241579;28;20459;-67
2022/03/14 03:44:50;;;;;;;6.10;3.58;;;;;;;8.77;91.35;101761.81;5240062;28;20569;-67
2022/03/14 03:47:22;;;;;;;4.90;3.72;;;;;;;8.83;91.48;101767.63;5239735;28;20029;-67
2022/03/14 03:49:53;;;;;;;6.10;4.22;;;;;;;8.77;91.20;101762.66;5237117;28;20182;-67
2022/03/14 03:52:24;;;;;;;5.40;4.05;;;;;;;8.73;91.77;101771.75;5246366;28;20033;-67
2022/03/14 03:54:55;;;;;;;6.30;4.28;;;;;;;8.67;92.31;101764.09;5239136;28;20538;-67
2022/03/14 03:57:27;;;;;;;7.47;4.40;;;;;;;8.67;92.11;101782.72;5242068;28;20507;-67
2022/03/14 03:59:58;;;;;;;5.55;4.50;;;;;;;8.70;92.33;101789.69;5234248;28;20025;-67
2022/03/14 04:02:35;;;;;;;6.47;4.50;;;;;;;8.69;92.48;101786.16;5238127;28;20033;-67
2022/03/14 04:05:06;;;;;;;5.97;4.50;;;;;;;8.65;93.12;101800.56;5244624;28;20065;-67
2022/03/14 04:07:40;;;;;;;7.68;5.10;;;;;;;8.58;93.83;101794.72;5241368;28;20124;-67
2022/03/14 04:10:12;;;;;;;6.38;4.93;;;;;;;8.58;94.21;101804.50;5246286;28;20430;-67
2022/03/14 04:12:44;;;;;;;6.78;4.90;;;;;;;8.50;95.06;101804.91;5238269;28;20029;-67
2022/03/14 04:15:16;;;;;;;7.18;5.38;;;;;;;8.52;95.93;101813.66;5235984;28;20051;-67
2022/03/14 04:17:47;;;;;;;8.23;6.20;;;;;;;8.45;95.80;101820.22;5239749;28;20068;-67
2022/03/14 04:20:22;;;;;;;7.88;5.40;;;;;;;8.47;96.05;101821.00;5238570;28;20183;-67
2022/03/14 04:22:53;;;;;;;;;;;;;;;8.53;94.22;101825.16;5236413;28;20043;-67
2022/03/14 04:25:25;;;;;;;7.70;5.35;;;;;;;8.49;96.03;101834.22;5237978;28;20010;-67
2022/03/14 04:27:56;;;;;;;6.93;5.25;;;;;;;8.50;96.13;101841.28;5249940;28;20065;-67
2022/03/14 04:30:27;;;;;;;8.63;5.75;;;;;;;8.48;96.23;101835.19;5239463;28;20033;-67
2022/03/14 04:32:58;;;;;;;7.57;5.40;;;;;;;8.38;95.66;101840.94;5250913;28;20533;-67
2022/03/14 04:35:30;;;;;;;8.05;5.30;;;;;;;8.37;96.00;101838.34;5234201;28;20054;-67
2022/03/14 04:38:03;;;;;;;7.30;5.82;;;;;;;8.34;96.67;101849.13;5242814;28;20060;-67
2022/03/14 04:40:35;;;;;;;7.50;5.68;;;;;;;8.31;96.54;101851.97;5239778;28;20037;-67
2022/03/14 04:43:07;;;;;;;8.88;5.75;;;;;;;8.34;96.08;101854.44;5240288;28;20530;-67
2022/03/14 04:45:40;;;;;;;7.88;5.85;;;;;;;8.29;96.46;101853.84;5253027;28;20471;-67
2022/03/14 04:48:11;;;;;;;8.30;6.25;;;;;;;8.21;96.56;101857.75;5242769;28;20071;-67
2022/03/14 04:50:42;;;;;;;7.70;5.90;;;;;;;8.18;96.88;101852.56;5245986;28;20033;-67
2022/03/14 04:53:14;;;;;;;8.95;6.32;;;;;;;8.18;97.04;101855.22;5255770;28;20028;-67
2022/03/14 04:55:45;;;;;;;9.82;6.80;;;;;;;8.09;97.05;101873.44;5239384;28;20109;-67
2022/03/14 04:58:17;;;;;;;8.82;6.68;;;;;;;8.07;97.10;101867.34;5240776;28;20041;-67
2022/03/14 05:00:49;;;;;;;8.80;6.85;;;;;;;8.05;97.43;101883.34;5238950;28;20060;-67
2022/03/14 05:03:20;;;;;;;8.88;6.85;;;;;;;8.02;97.20;101881.72;5241077;28;20065;-67
2022/03/14 05:05:51;;;;;;;9.10;6.68;;;;;;;8.02;97.48;101899.47;5239867;28;20465;-67
2022/03/14 05:08:23;;;;;;;8.48;7.03;;;;;;;7.97;97.34;101896.16;5244728;28;20753;-67
2022/03/14 05:10:54;;;;;;;9.95;6.57;;;;;;;7.95;97.71;101903.34;5241643;28;20718;-67
2022/03/14 05:13:25;;;;;;;9.18;7.20;;;;;;;7.99;97.70;101911.09;5238381;28;20419;-67
2022/03/14 05:15:57;;;;;;;10.65;7.43;;;;;;;7.94;97.82;101910.47;5239061;28;20037;-67
2022/03/14 05:18:28;;;;;;;12.25;8.00;;;;;;;7.93;97.73;101914.06;5238664;28;20024;-67
2022/03/14 05:20:59;;;;;;;9.82;7.45;;;;;;;7.96;97.64;101921.03;5243181;28;20025;-67
2022/03/14 05:23:31;;;;;;;10.68;7.53;;;;;;;7.95;97.76;101925.47;5248549;28;20025;-67
2022/03/14 05:26:02;;;;;;;11.70;7.75;;;;;;;7.99;97.61;101934.16;5241859;28;20144;-67
2022/03/14 05:28:34;;;;;;;11.32;9.02;;;;;;;7.94;97.94;101930.84;5241302;28;20687;-67
2022/03/14 05:31:05;;;;;;;11.05;8.77;;;;;;;7.95;98.12;101930.78;5238104;28;20039;-67
2022/03/14 05:33:36;;;;;;;14.30;9.95;;;;;;;7.96;98.29;101944.94;5240146;28;20024;-67
2022/03/14 05:36:08;;;;;;;13.15;10.02;;;;;;;7.97;97.81;101942.19;5242626;28;20086;-67
2022/03/14 05:38:39;;;;;;;12.10;9.48;;;;;;;8.02;97.75;101949.97;5245060;28;20043;-67
2022/03/14 05:41:11;;;;;;;15.07;10.18;;;;;;;7.96;97.99;101956.44;5241465;28;20033;-67
2022/03/14 05:43:42;;;;;;;14.05;10.13;;;;;;;7.97;97.50;101954.63;5239978;28;20037;-67
2022/03/14 05:46:13;;;;;;;14.20;10.18;;;;;;;7.98;97.55;101967.84;5237627;28;20057;-67
2022/03/14 05:48:44;;;;;;;16.05;11.32;;;;;;;7.97;97.77;101963.47;5243690;28;20029;-67
2022/03/14 05:51:16;;;;;;;16.15;11.27;;;;;;;7.96;98.24;101971.53;5239806;28;20024;-67
2022/03/14 05:53:47;;;;;;;14.68;10.65;;;;;;;8.00;97.67;101983.72;5241701;28;20128;-67
2022/03/14 05:56:18;;;;;;;13.82;11.52;;;;;;;7.96;97.82;101969.72;5234692;28;20040;-67
2022/03/14 05:58:49;;;;;;;18.98;11.38;;;;;;;7.99;97.94;101980.19;5247421;28;20037;-67
2022/03/14 06:01:22;;;;;;;18.95;12.07;;;;;;;8.01;97.53;101988.94;5239126;28;20090;-67
2022/03/14 06:03:53;;;;;;;17.08;11.38;;;;;;;8.01;97.68;101996.91;5247143;28;20029;-67
2022/03/14 06:06:24;;;;;;;16.10;12.02;;;;;;;8.02;97.94;101995.16;5239805;28;20036;-67
2022/03/14 06:08:55;;;;;;;15.00;11.57;;;;;;;8.07;97.70;101995.78;5249477;28;20033;-67
2022/03/14 06:11:27;;;;;;;18.65;12.00;;;;;;;8.10;97.76;102003.59;5245567;28;20033;-67
2022/03/14 06:13:58;;;;;;;18.08;12.40;;;;;;;8.08;97.76;102004.63;5242338;28;20511;-67
2022/03/14 06:16:30;;;;;;;16.95;12.25;;;;;;;8.10;97.68;102010.72;5242391;28;20044;-68
2022/03/14 06:19:01;;;;;;;16.17;12.00;;;;;;;8.16;97.29;102013.09;5236601;28;20094;-67
2022/03/14 06:21:34;;;;;;;16.63;12.65;;;;;;;8.16;97.72;102019.25;5238634;28;20029;-67
2022/03/14 06:24:08;;;;;;;18.42;12.80;;;;;;;8.20;97.34;102023.50;5244362;28;20033;-67
2022/03/14 06:26:40;;;;;;;17.83;12.40;;;;;;;8.25;96.83;102025.94;5239241;28;20032;-68
2022/03/14 06:29:13;;;;;;;17.67;12.13;;;;;;;8.26;97.17;102025.00;5248394;28;20122;-68
2022/03/14 06:31:44;;;;;;;17.15;11.95;;;;;;;8.21;96.91;102035.88;5242356;28;20025;-67
2022/03/14 06:34:16;;;;;;;17.25;12.00;;;;;;;8.22;97.14;102044.69;5245459;28;20036;-67
2022/03/14 06:36:47;;;;;;;17.30;12.55;;;;;;;8.23;96.76;102046.44;5241991;28;20025;-67
2022/03/14 06:39:18;;;;;;;18.83;13.32;;;;;;;8.20;97.22;102044.75;5240585;28;20041;-67
2022/03/14 06:41:50;;;;;;;18.45;13.93;;;;;;;8.21;98.13;102045.66;5247145;28;20445;-67
2022/03/14 06:44:27;;;;;;;18.75;13.65;;;;;;;8.20;98.02;102052.75;5245064;28;20072;-67
2022/03/14 06:46:59;;;;;;;21.77;13.90;;;;;;;8.23;97.81;102051.75;5237926;28;20041;-67
2022/03/14 06:49:30;;;;;;;20.23;13.20;;;;;;;8.28;97.76;102056.84;5255696;28;20486;-68
2022/03/14 06:52:03;;;;;;;18.00;14.00;;;;;;;8.21;97.59;102053.63;5247042;28;20040;-67
2022/03/14 06:54:34;;;;;;;20.58;13.27;;;;;;;8.24;97.48;102059.63;5241020;28;20132;-68
2022/03/14 06:57:09;;;;;;;18.48;14.20;;;;;;;8.25;97.25;102063.19;5236385;28;20407;-68
2022/03/14 06:59:41;;;;;;;21.25;13.90;;;;;;;8.25;97.39;102065.84;5243038;28;20028;-67
2022/03/14 07:02:12;;;;;;;20.42;14.27;;;;;;;8.33;97.27;102074.31;5246293;28;20036;-67
2022/03/14 07:04:44;;;;;;;21.25;13.75;;;;;;;8.41;96.74;102077.47;5251675;28;20025;-67
2022/03/14 07:07:15;;;;;;;19.13;13.75;;;;;;;8.46;96.56;102079.06;5252120;28;20437;-67
2022/03/14 07:09:46;;;;;;;18.08;13.77;;;;;;;8.47;96.76;102080.78;5242747;28;20403;-67
2022/03/14 07:12:17;;;;;;;20.60;14.40;;;;;;;8.53;96.53;102084.00;5248536;28;20119;-67
2022/03/14 07:14:49;;;;;;;19.55;13.77;;;;;;;8.61;96.43;102089.84;5243419;28;20531;-67
2022/03/14 07:17:20;;;;;;;19.42;13.20;;;;;;;8.64;95.94;102094.16;5242493;28;20062;-67
2022/03/14 07:19:52;;;;;;;18.95;12.98;;;;;;;8.68;95.81;102093.06;5244876;28;20031;-68
2022/03/14 07:22:29;;;;;;;21.65;13.30;;;;;;;8.72;94.86;102099.94;5242657;28;20197;-68
2022/03/14 07:25:01;;;;;;;18.10;12.98;;;;;;;8.74;94.22;102092.75;5239376;28;20680;-67
2022/03/14 07:27:33;;;;;;;21.13;12.65;;;;;;;8.77;94.13;102107.72;5236300;28;20037;-67
2022/03/14 07:30:05;;;;;;;18.15;12.85;;;;;;;8.80;93.83;102108.44;5239384;28;20020;-67
2022/03/14 07:32:36;;;;;;;20.52;13.00;;;;;;;8.84;93.84;102109.16;5243400;28;20474;-67
2022/03/14 07:35:09;;;;;;;19.33;12.57;;;;;;;8.87;93.68;102109.00;5241646;28;20036;-68
2022/03/14 07:37:40;;;;;;;19.65;13.23;;;;;;;8.87;92.97;102103.66;5245385;28;20051;-67
2022/03/14 07:40:13;;;;;;;15.63;12.00;;;;;;;8.96;93.73;102102.38;5240441;28;20032;-67
2022/03/14 07:42:51;;;;;;;18.90;12.70;;;;;;;9.07;93.06;102101.81;5248259;28;20037;-67
2022/03/14 07:45:24;;;;;;;20.35;13.45;;;;;;;9.08;92.54;102109.72;5244740;28;20029;-67
2022/03/14 07:47:57;;;;;;;22.23;13.48;;;;;;;9.12;91.71;102111.28;5237020;28;20690;-68
2022/03/14 07:50:28;;;;;;;20.05;12.63;;;;;;;9.19;92.26;102117.19;5242201;28;20037;-68
2022/03/14 07:53:00;;;;;;;18.85;12.60;;;;;;;9.21;91.74;102116.16;5249340;28;20047;-68
2022/03/14 07:55:31;;;;;;;24.95;14.07;;;;;;;9.26;91.10;102123.06;5251826;28;20039;-68
2022/03/14 07:58:03;;;;;;;18.60;12.73;;;;;;;9.33;91.50;102129.81;5251624;28;20410;-67
2022/03/14 08:00:34;;;;;;;21.17;13.45;;;;;;;9.40;90.52;102134.75;5251887;28;20525;-68
2022/03/14 08:03:05;;;;;;;19.45;13.65;;;;;;;9.39;89.99;102138.34;5251702;28;20064;-68
2022/03/14 08:05:37;;;;;;;20.63;13.05;;;;;;;9.44;89.90;102139.94;5248004;28;20074;-67
2022/03/14 08:08:08;;;;;;;23.15;15.38;;;;;;;9.42;90.44;102145.31;5252961;28;20029;-67
2022/03/14 08:10:41;;;;;;;20.80;13.52;;;;;;;9.45;89.98;102139.81;5248440;28;20051;-67
2022/03/14 08:13:13;;;;;;;21.40;13.77;;;;;;;9.42;89.93;102148.00;5250707;28;20088;-67
2022/03/14 08:15:44;;;;;;;22.38;13.95;;;;;;;9.44;89.74;102151.44;5247758;28;20119;-67
2022/03/14 08:18:15;;;;;;;21.85;13.80;;;;;;;9.47;89.82;102164.59;5248801;28;20059;-67
2022/03/14 08:20:50;;;;;;;22.95;13.77;;;;;;;9.47;89.85;102164.59;5247486;28;20111;-68
2022/03/14 08:23:21;;;;;;;22.52;13.75;;;;;;;9.48;89.73;102173.47;5251183;28;20091;-66
2022/03/14 08:25:56;;;;;;;20.17;13.15;;;;;;;9.50;89.76;102180.44;5239472;28;20033;-67
2022/03/14 08:28:27;;;;;;;19.00;13.65;;;;;;;9.52;89.29;102175.88;5236433;28;20166;-68
2022/03/14 08:30:59;;;;;;;22.20;12.85;;;;;;;9.54;89.33;102176.66;5254593;28;20111;-68
2022/03/14 08:33:31;;;;;;;20.63;13.77;;;;;;;9.56;88.69;102179.25;5251433;28;20097;-68
2022/03/14 08:36:04;;;;;;;20.80;12.35;;;;;;;9.59;88.41;102173.78;5250661;28;20036;-67
2022/03/14 08:38:37;;;;;;;17.40;12.77;;;;;;;9.64;88.95;102187.72;5251493;28;20505;-67
2022/03/14 08:41:08;;;;;;;19.48;12.93;;;;;;;9.65;88.40;102189.44;5250710;28;20025;-68
2022/03/14 08:43:40;;;;;;;21.13;12.27;;;;;;;9.75;88.58;102188.03;5248080;28;20048;-68
2022/03/14 08:46:12;;;;;;;18.75;11.52;;;;;;;9.84;88.44;102199.16;5242796;28;20064;-68
2022/03/14 08:48:43;;;;;;;19.33;12.20;;;;;;;9.99;87.29;102209.00;5246154;28;20091;-67
2022/03/14 08:51:15;;;;;;;19.45;11.57;;;;;;;10.06;86.29;102205.09;5247673;28;20033;-68
2022/03/14 08:53:46;;;;;;;15.48;11.18;;;;;;;10.10;85.95;102221.78;5247164;28;20036;-68
2022/03/14 08:56:18;;;;;;;16.23;10.85;;;;;;;10.07;85.58;102229.94;5249465;28;20057;-68
2022/03/14 08:58:49;;;;;;;19.95;12.10;;;;;;;10.09;85.71;102220.09;5247145;28;20034;-68
2022/03/14 09:01:21;;;;;;;18.55;11.27;;;;;;;10.13;85.49;102225.16;5254663;28;20759;-67
2022/03/14 09:03:53;;;;;;;19.85;11.13;;;;;;;10.19;84.88;102226.66;5253166;28;20036;-68
2022/03/14 09:06:24;;;;;;;18.98;10.63;;;;;;;10.19;84.42;102238.19;5250006;28;20406;-68
2022/03/14 09:08:55;;;;;;;16.08;10.45;;;;;;;10.35;85.35;102243.59;5251454;28;20025;-68
2022/03/14 09:11:27;;;;;;;20.08;11.00;;;;;;;10.50;83.72;102243.72;5252856;28;20035;-68
2022/03/14 09:13:58;;;;;;;15.32;10.18;;;;;;;10.70;84.81;102238.19;5252461;28;20085;-68
2022/03/14 09:16:29;;;;;;;16.60;10.63;;;;;;;10.72;82.17;102249.63;5252218;28;20127;-68
2022/03/14 09:19:01;;;;;;;17.65;10.23;;;;;;;10.84;82.43;102256.09;5252865;28;20028;-68
2022/03/14 09:21:33;;;;;;;14.30;9.20;;;;;;;10.87;81.68;102250.56;5247946;28;20033;-68
2022/03/14 09:24:05;;;;;;;15.02;9.77;;;;;;;10.92;81.22;102258.34;5249096;28;20067;-68
2022/03/14 09:26:37;;;;;;;15.98;9.77;;;;;;;11.05;81.19;102264.75;5250734;28;20589;-68
2022/03/14 09:29:09;;;;;;;14.73;9.43;;;;;;;11.10;81.33;102260.00;5254785;28;20444;-68
2022/03/14 09:31:40;;;;;;;14.05;9.10;;;;;;;11.18;80.28;102260.44;5254647;28;20028;-68
2022/03/14 09:34:11;;;;;;;12.95;8.80;;;;;;;11.43;79.26;102271.50;5256234;28;20452;-68
2022/03/14 09:36:43;;;;;;;15.23;9.32;;;;;;;11.63;79.67;102267.72;5253163;28;20380;-68
2022/03/14 09:39:15;;;;;;;15.38;8.38;;;;;;;11.66;76.69;102268.41;5255040;28;20033;-68
2022/03/14 09:41:49;;;;;;;14.93;8.10;;;;;;;11.61;75.73;102280.31;5253661;28;20497;-68
2022/03/14 09:44:21;;;;;;;13.20;7.72;;;;;;;11.63;76.04;102278.41;5253286;28;20391;-68
2022/03/14 09:46:55;;;;;;;13.35;8.23;;;;;;;11.72;76.63;102289.44;5251487;28;20040;-68
2022/03/14 09:49:28;;;;;;;14.07;8.05;;;;;;;11.77;75.49;102292.69;5249394;28;20032;-68
2022/03/14 09:52:00;;;;;;;12.52;7.63;;;;;;;11.88;74.33;102301.91;5252333;28;20028;-68
2022/03/14 09:54:32;;;;;;;11.95;7.63;;;;;;;11.94;73.92;102307.75;5255031;28;20509;-68
2022/03/14 09:57:03;;;;;;;12.57;7.72;;;;;;;11.98;73.91;102312.94;5252334;28;20078;-68
2022/03/14 09:59:36;;;;;;;15.48;7.78;;;;;;;11.85;73.56;102312.75;5248311;28;20151;-68
2022/03/14 10:02:10;;;;;;;13.93;8.07;;;;;;;11.87;75.55;102321.56;5253672;28;20084;-68
2022/03/14 10:04:42;;;;;;;12.13;7.95;;;;;;;11.95;74.09;102330.91;5254961;28;20020;-68
2022/03/14 10:07:13;;;;;;;13.63;7.82;;;;;;;12.07;74.87;102333.81;5249838;28;20506;-68
2022/03/14 10:09:44;;;;;;;13.38;7.10;;;;;;;11.99;72.48;102334.25;5249660;28;20021;-68
2022/03/14 10:12:16;;;;;;;11.27;7.38;;;;;;;11.96;73.00;102327.25;5255434;28;20029;-68
2022/03/14 10:14:47;;;;;;;13.13;7.45;;;;;;;12.03;74.02;102333.13;5253178;28;20049;-67
2022/03/14 10:17:18;;;;;;;12.75;6.43;;;;;;;12.16;74.28;102343.97;5251613;28;20023;-68
2022/03/14 10:19:54;;;;;;;13.15;6.78;;;;;;;12.28;71.30;102337.03;5255628;28;20021;-68
2022/03/14 10:22:35;;;;;;;9.73;6.15;;;;;;;12.31;72.08;102337.72;5252173;28;20491;-68
2022/03/14 10:25:10;;;;;;;11.52;6.95;;;;;;;12.28;70.68;102345.06;5254758;28;20032;-68
2022/03/14 10:27:44;;;;;;;;;;;;;;;12.54;71.99;102352.38;5254714;28;20025;-68
2022/03/14 10:30:29;;;;;;;12.43;7.15;;;;;;;12.29;70.74;102362.81;5253452;28;19924;-68
2022/03/14 10:33:07;;;;;;;13.85;7.72;;;;;;;12.25;70.49;102362.13;5256088;28;20521;-68
2022/03/14 10:35:42;;;;;;;12.40;7.80;;;;;;;12.16;70.90;102368.91;5251151;28;20071;-68
2022/03/14 10:38:13;;;;;;;13.35;9.05;;;;;;;12.11;70.39;102362.97;5256570;28;20033;-68
2022/03/14 10:40:46;;;;;;;14.45;10.90;;;;;;;11.99;70.23;102368.19;5249471;28;20102;-68
2022/03/14 10:43:25;;;;;;;16.98;11.20;;;;;;;11.88;71.30;102376.78;5257585;28;20075;-68
2022/03/14 10:45:58;;;;;;;13.68;8.63;;;;;;;11.94;72.25;102376.47;5255625;28;20029;-68
2022/03/14 10:48:38;;;;;;;11.10;7.75;;;;;;;12.02;72.29;102376.88;5254934;28;20035;-68
2022/03/14 10:51:13;;;;;;;10.00;7.45;;;;;;;12.06;71.72;102382.91;5251752;28;20502;-68
2022/03/14 10:53:46;;;;;;;12.75;7.70;;;;;;;12.04;71.16;102383.03;5254390;28;20041;-68
2022/03/14 10:56:27;;;;;;;11.07;6.73;;;;;;;12.08;71.28;102394.38;5247650;28;20043;-68
2022/03/14 10:59:06;;;;;;;13.02;7.65;;;;;;;12.13;71.25;102397.66;5249990;28;20162;-68
2022/03/14 11:01:57;;;;;;;11.48;6.70;;;;;;;12.15;71.43;102395.75;5253169;28;20394;-68
2022/03/14 11:04:38;;;;;;;10.35;6.43;;;;;;;11.88;70.86;102396.34;5250730;28;20147;-68
2022/03/14 11:07:10;;;;;;;10.65;7.15;;;;;;;11.85;72.29;102393.88;5253091;28;20375;-67
2022/03/14 11:09:49;;;;;;;9.80;6.13;;;;;;;11.76;71.44;102395.25;5253234;28;20052;-68
2022/03/14 11:12:22;;;;;;;9.65;6.18;;;;;;;11.71;71.66;102385.75;5251172;28;20036;-68
2022/03/14 11:14:54;;;;;;;9.20;5.53;;;;;;;11.73;73.18;102398.09;5254419;28;20052;-67
2022/03/14 11:17:27;;;;;;;10.23;5.38;;;;;;;11.60;70.15;102399.72;5251047;28;20059;-68
2022/03/14 11:19:59;;;;;;;11.27;5.65;;;;;;;11.64;71.46;102400.41;5252639;28;20119;-67
2022/03/14 11:22:31;;;;;;;9.82;5.40;;;;;;;11.58;69.41;102386.47;5254677;28;20017;-68
2022/03/14 11:25:03;;;;;;;10.70;5.80;;;;;;;11.63;70.70;102385.34;5253842;28;20099;-68
2022/03/14 11:27:36;;;;;;;10.68;5.28;;;;;;;11.84;70.28;102389.47;5254021;28;20038;-68
2022/03/14 11:30:10;;;;;;;9.15;4.30;;;;;;;11.94;67.95;102395.19;5251584;28;20027;-68
2022/03/14 11:32:42;;;;;;;7.38;4.80;;;;;;;12.02;67.99;102390.25;5250625;28;21802;-68
2022/03/14 11:35:13;;;;;;;9.15;4.82;;;;;;;12.21;67.10;102398.06;5252890;28;20028;-68
2022/03/14 11:37:46;;;;;;;8.68;3.90;;;;;;;12.11;65.40;102402.25;5251395;28;20040;-68
2022/03/14 11:40:17;;;;;;;7.63;3.90;;;;;;;12.11;66.26;102404.91;5250505;28;20032;-68
2022/03/14 11:42:48;;;;;;;5.70;3.13;;;;;;;12.20;64.96;102390.16;5249955;28;20024;-68
2022/03/14 11:45:20;;;;;;;8.50;3.95;;;;;;;12.24;64.51;102397.03;5253999;28;20687;-68
2022/03/14 11:47:53;;;;;;;7.95;4.13;;;;;;;12.35;65.32;102402.63;5249383;28;20061;-68